createdAt,value
2022-11-16T00:00:26.148Z,49.00
2022-11-16T00:03:04.226Z,40.83
2022-11-16T00:05:30.495Z,39.00
2022-11-16T00:07:57.450Z,40.17
2022-11-16T00:10:23.769Z,38.27
2022-11-16T00:12:50.216Z,36.73
2022-11-16T00:15:16.470Z,35.00
2022-11-16T00:17:42.909Z,36.67
2022-11-16T00:20:09.650Z,37.13
2022-11-16T00:22:36.114Z,32.47
2022-11-16T00:25:02.352Z,34.40
2022-11-16T00:27:29.176Z,35.43
2022-11-16T00:29:55.498Z,33.57
2022-11-16T00:32:22.971Z,33.87
2022-11-16T00:34:49.118Z,34.30
2022-11-16T00:37:15.526Z,36.57
2022-11-16T00:39:41.663Z,35.87
2022-11-16T00:42:12.393Z,34.40
2022-11-16T00:44:38.575Z,28.83
2022-11-16T00:47:05.014Z,31.43
2022-11-16T00:49:31.166Z,32.03
2022-11-16T00:51:57.675Z,33.73
2022-11-16T00:54:24.286Z,30.87
2022-11-16T00:56:50.739Z,36.43
2022-11-16T00:59:16.993Z,39.23
2022-11-16T01:01:43.897Z,34.30
2022-11-16T01:04:10.215Z,35.93
2022-11-16T01:06:36.814Z,35.43
2022-11-16T01:09:03.403Z,36.97
2022-11-16T01:11:48.118Z,37.10
2022-11-16T01:14:14.339Z,35.37
2022-11-16T01:16:42.660Z,34.17
2022-11-16T01:19:09.010Z,34.93
2022-11-16T01:21:35.590Z,41.50
2022-11-16T01:24:02.299Z,37.00
2022-11-16T01:26:29.175Z,40.50
2022-11-16T01:28:58.099Z,37.87
2022-11-16T01:31:25.653Z,37.53
2022-11-16T01:33:51.939Z,38.13
2022-11-16T01:36:22.422Z,39.93
2022-11-16T01:38:49.972Z,38.33
2022-11-16T01:41:24.953Z,46.27
2022-11-16T01:44:02.520Z,42.43
2022-11-16T01:46:35.105Z,46.07
2022-11-16T01:49:09.948Z,48.63
2022-11-16T01:51:39.196Z,48.33
2022-11-16T01:54:08.094Z,45.77
2022-11-16T01:56:38.939Z,52.50
2022-11-16T01:59:19.469Z,47.73
2022-11-16T02:01:46.218Z,53.20
2022-11-16T02:04:13.919Z,45.10
2022-11-16T02:07:09.124Z,50.10
2022-11-16T02:10:06.525Z,56.87
2022-11-16T02:13:10.917Z,50.73
2022-11-16T02:16:19.518Z,54.70
2022-11-16T02:18:56.404Z,53.37
2022-11-16T02:21:43.384Z,46.80
2022-11-16T02:24:34.329Z,49.73
2022-11-16T02:27:15.911Z,47.03
2022-11-16T02:29:47.709Z,52.10
2022-11-16T02:32:20.460Z,46.67
2022-11-16T02:34:52.609Z,44.13
2022-11-16T02:37:22.259Z,47.40
2022-11-16T02:39:55.314Z,47.10
2022-11-16T02:42:29.192Z,44.13
2022-11-16T02:44:58.717Z,38.37
2022-11-16T02:47:29.821Z,38.50
2022-11-16T02:50:01.677Z,42.20
2022-11-16T02:52:28.778Z,39.00
2022-11-16T02:54:56.542Z,43.63
2022-11-16T02:57:41.556Z,38.63
2022-11-16T03:00:17.587Z,39.73
2022-11-16T03:03:01.377Z,40.67
2022-11-16T03:05:33.105Z,40.90
2022-11-16T03:08:13.397Z,35.00
2022-11-16T03:11:02.329Z,34.43
2022-11-16T03:13:33.380Z,41.43
2022-11-16T03:16:04.671Z,36.63
2022-11-16T03:18:31.328Z,40.63
2022-11-16T03:21:10.493Z,35.97
2022-11-16T03:23:37.151Z,41.33
2022-11-16T03:26:07.614Z,35.60
2022-11-16T03:28:46.851Z,40.10
2022-11-16T03:31:20.973Z,36.93
2022-11-16T03:33:52.386Z,42.50
2022-11-16T03:36:39.997Z,60.07
2022-11-16T03:39:11.897Z,51.07
2022-11-16T03:41:43.534Z,44.10
2022-11-16T03:44:12.848Z,36.67
2022-11-16T03:46:44.678Z,36.97
2022-11-16T03:49:12.706Z,38.60
2022-11-16T03:51:40.218Z,41.80
2022-11-16T03:54:06.799Z,39.63
2022-11-16T03:56:34.753Z,41.03
2022-11-16T03:59:02.021Z,40.70
2022-11-16T04:01:30.006Z,39.23
2022-11-16T04:03:56.277Z,38.57
2022-11-16T04:06:42.173Z,36.10
2022-11-16T04:09:28.276Z,37.97
2022-11-16T04:12:13.606Z,34.77
2022-11-16T04:15:00.265Z,38.33
2022-11-16T04:17:47.401Z,40.33
2022-11-16T04:20:33.357Z,37.87
2022-11-16T04:23:25.103Z,40.57
2022-11-16T04:25:52.301Z,38.20
2022-11-16T04:28:23.268Z,35.53
2022-11-16T04:31:12.941Z,35.03
2022-11-16T04:34:02.514Z,33.77
2022-11-16T04:36:47.555Z,36.70
2022-11-16T04:39:14.309Z,35.07
2022-11-16T04:41:59.718Z,35.87
2022-11-16T04:44:49.427Z,37.60
2022-11-16T04:47:16.390Z,35.77
2022-11-16T04:49:42.938Z,36.17
2022-11-16T04:52:09.552Z,32.10
2022-11-16T04:54:36.386Z,34.70
2022-11-16T04:57:02.948Z,32.17
2022-11-16T04:59:29.535Z,31.57
2022-11-16T05:02:08.209Z,30.20
2022-11-16T05:04:42.245Z,33.23
2022-11-16T05:07:11.465Z,25.47
2022-11-16T05:09:44.523Z,26.57
2022-11-16T05:12:23.819Z,20.73
2022-11-16T05:14:54.675Z,24.60
2022-11-16T05:17:24.612Z,25.43
2022-11-16T05:20:09.685Z,21.90
2022-11-16T05:22:43.861Z,23.63
2022-11-16T05:25:11.793Z,25.43
2022-11-16T05:27:37.996Z,20.93
2022-11-16T05:30:06.068Z,19.37
2022-11-16T05:32:33.206Z,18.63
2022-11-16T05:35:00.347Z,18.77
2022-11-16T05:37:27.144Z,24.90
2022-11-16T05:39:54.210Z,17.77
2022-11-16T05:42:24.245Z,18.03
2022-11-16T05:44:51.218Z,24.97
2022-11-16T05:47:17.783Z,20.90
2022-11-16T05:49:44.752Z,16.07
2022-11-16T05:52:12.034Z,15.87
2022-11-16T05:54:39.870Z,18.20
2022-11-16T05:57:06.117Z,19.60
2022-11-16T05:59:33.014Z,18.93
2022-11-16T06:02:04.399Z,19.20
2022-11-16T06:04:33.275Z,30.50
2022-11-16T06:06:59.828Z,18.37
2022-11-16T06:09:30.427Z,16.67
2022-11-16T06:12:02.775Z,19.83
2022-11-16T06:14:29.865Z,18.70
2022-11-16T06:16:57.238Z,17.73
2022-11-16T06:19:28.218Z,16.80
2022-11-16T06:21:57.402Z,20.47
2022-11-16T06:24:25.947Z,15.50
2022-11-16T06:26:52.254Z,23.97
2022-11-16T06:29:18.767Z,23.37
2022-11-16T06:31:45.025Z,27.07
2022-11-16T06:34:12.377Z,18.33
2022-11-16T06:36:41.582Z,20.83
2022-11-16T06:39:08.400Z,18.30
2022-11-16T06:41:41.197Z,22.90
2022-11-16T06:44:09.565Z,25.53
2022-11-16T06:46:39.121Z,20.20
2022-11-16T06:49:06.016Z,26.20
2022-11-16T06:51:33.709Z,23.43
2022-11-16T06:54:00.390Z,22.10
2022-11-16T06:56:27.589Z,22.20
2022-11-16T06:58:56.864Z,22.80
2022-11-16T07:01:25.241Z,24.53
2022-11-16T07:03:57.072Z,26.03
2022-11-16T07:06:23.263Z,20.07
2022-11-16T07:08:50.031Z,22.13
2022-11-16T07:11:21.516Z,20.93
2022-11-16T07:13:48.654Z,22.70
2022-11-16T07:16:15.048Z,21.13
2022-11-16T07:18:48.785Z,22.50
2022-11-16T07:21:16.293Z,20.27
2022-11-16T07:23:43.527Z,22.17
2022-11-16T07:26:13.020Z,18.33
2022-11-16T07:28:51.413Z,18.50
2022-11-16T07:31:20.650Z,16.37
2022-11-16T07:34:04.414Z,20.73
2022-11-16T07:36:48.497Z,18.83
2022-11-16T07:39:16.395Z,17.20
2022-11-16T07:41:44.414Z,20.60
2022-11-16T07:44:31.689Z,18.90
2022-11-16T07:47:05.608Z,16.40
2022-11-16T07:49:33.719Z,18.73
2022-11-16T07:52:09.058Z,16.93
2022-11-16T07:54:53.862Z,18.13
2022-11-16T07:57:23.323Z,19.93
2022-11-16T07:59:52.034Z,18.87
2022-11-16T08:02:18.355Z,15.33
2022-11-16T08:04:46.272Z,16.03
2022-11-16T08:07:12.628Z,18.63
2022-11-16T08:09:46.190Z,16.07
2022-11-16T08:12:14.936Z,14.70
2022-11-16T08:14:42.088Z,16.80
2022-11-16T08:17:08.736Z,15.80
2022-11-16T08:19:39.515Z,16.27
2022-11-16T08:22:06.812Z,15.50
2022-11-16T08:24:34.047Z,15.70
2022-11-16T08:27:00.353Z,15.73
2022-11-16T08:29:27.017Z,14.97
2022-11-16T08:31:55.679Z,14.87
2022-11-16T08:34:22.583Z,15.53
2022-11-16T08:36:52.421Z,17.00
2022-11-16T08:39:25.952Z,15.57
2022-11-16T08:41:52.254Z,15.93
2022-11-16T08:44:19.285Z,14.83
2022-11-16T08:46:49.381Z,14.43
2022-11-16T08:49:28.549Z,40.17
2022-11-16T08:51:55.311Z,14.97
2022-11-16T08:54:22.148Z,18.83
2022-11-16T08:56:48.631Z,20.50
2022-11-16T08:59:16.261Z,18.97
2022-11-16T09:01:49.631Z,20.03
2022-11-16T09:04:18.009Z,51.30
2022-11-16T09:06:44.866Z,40.93
2022-11-16T09:09:11.508Z,20.07
2022-11-16T09:11:38.028Z,18.20
2022-11-16T09:14:04.424Z,16.03
2022-11-16T09:16:30.739Z,23.70
2022-11-16T09:18:57.144Z,17.47
2022-11-16T09:21:25.865Z,34.63
2022-11-16T09:23:53.753Z,25.10
2022-11-16T09:26:22.390Z,31.77
2022-11-16T09:28:57.479Z,23.30
2022-11-16T09:31:27.930Z,31.23
2022-11-16T09:33:57.655Z,28.33
2022-11-16T09:36:25.434Z,46.83
2022-11-16T09:39:25.861Z,69.03
2022-11-16T09:42:21.028Z,39.77
2022-11-16T09:45:07.705Z,20.87
2022-11-16T09:47:51.006Z,20.57
2022-11-16T09:50:32.749Z,16.13
2022-11-16T09:53:13.139Z,44.40
2022-11-16T09:55:52.873Z,18.13
2022-11-16T09:58:38.543Z,15.37
2022-11-16T10:01:18.864Z,12.93
2022-11-16T10:03:49.876Z,17.77
2022-11-16T10:06:22.668Z,21.77
2022-11-16T10:08:51.450Z,20.30
2022-11-16T10:11:33.402Z,47.00
2022-11-16T10:14:28.806Z,27.17
2022-11-16T10:17:12.210Z,18.03
2022-11-16T10:19:52.658Z,17.07
2022-11-16T10:22:32.841Z,11.40
2022-11-16T10:25:05.422Z,11.13
2022-11-16T10:28:09.073Z,9.03
2022-11-16T10:30:45.857Z,10.50
2022-11-16T10:33:18.875Z,18.93
2022-11-16T10:35:55.366Z,13.43
2022-11-16T10:38:29.998Z,10.23
2022-11-16T10:41:13.993Z,13.60
2022-11-16T10:43:42.664Z,8.90
2022-11-16T10:46:34.535Z,9.57
2022-11-16T10:49:28.345Z,14.13
2022-11-16T10:51:54.735Z,11.83
2022-11-16T10:54:22.500Z,20.87
2022-11-16T10:56:59.088Z,25.17
2022-11-16T10:59:42.219Z,32.87
2022-11-16T11:02:35.036Z,10.53
2022-11-16T11:05:05.654Z,13.77
2022-11-16T11:07:39.168Z,13.63
2022-11-16T11:10:29.344Z,7.43
2022-11-16T11:13:11.203Z,13.03
2022-11-16T11:15:42.059Z,10.50
2022-11-16T11:18:22.536Z,14.63
2022-11-16T11:21:07.750Z,21.83
2022-11-16T11:23:44.955Z,12.63
2022-11-16T11:26:33.099Z,11.63
2022-11-16T11:29:24.121Z,13.53
2022-11-16T11:31:59.413Z,11.17
2022-11-16T11:34:30.077Z,9.50
2022-11-16T11:37:02.301Z,18.00
2022-11-16T11:39:36.577Z,14.10
2022-11-16T11:42:05.150Z,8.97
2022-11-16T11:44:36.482Z,9.73
2022-11-16T11:47:50.459Z,7.77
2022-11-16T11:50:05.270Z,10.07
2022-11-16T11:52:46.028Z,10.87
2022-11-16T11:55:15.362Z,9.50
2022-11-16T11:57:44.297Z,7.80
2022-11-16T12:00:14.949Z,7.17
2022-11-16T12:02:44.589Z,10.40
2022-11-16T12:05:34.487Z,9.67
2022-11-16T12:08:38.594Z,9.47
2022-11-16T12:11:30.822Z,9.43
2022-11-16T12:14:00.199Z,9.90
2022-11-16T12:16:37.663Z,8.57
2022-11-16T12:19:34.975Z,11.70
2022-11-16T12:22:32.684Z,5.80
2022-11-16T12:25:32.758Z,9.13
2022-11-16T12:28:14.110Z,11.33
2022-11-16T12:30:58.628Z,9.07
2022-11-16T12:33:48.785Z,15.33
2022-11-16T12:36:46.818Z,13.07
2022-11-16T12:39:26.944Z,5.37
2022-11-16T12:42:07.789Z,6.07
2022-11-16T12:44:37.100Z,10.00
2022-11-16T12:47:30.807Z,40.33
2022-11-16T12:50:23.997Z,6.70
2022-11-16T12:53:13.358Z,9.90
2022-11-16T12:55:48.789Z,4.77
2022-11-16T12:58:31.040Z,7.33
2022-11-16T13:01:19.481Z,5.77
2022-11-16T13:03:58.865Z,5.80
2022-11-16T13:06:44.387Z,6.97
2022-11-16T13:09:17.916Z,7.03
2022-11-16T13:11:52.118Z,7.07
2022-11-16T13:14:24.223Z,9.80
2022-11-16T13:16:52.516Z,5.80
2022-11-16T13:19:20.061Z,8.37
2022-11-16T13:22:02.406Z,5.83
2022-11-16T13:24:44.672Z,12.17
2022-11-16T13:27:16.816Z,10.03
2022-11-16T13:30:02.818Z,7.33
2022-11-16T13:32:32.192Z,5.07
2022-11-16T13:35:00.506Z,7.27
2022-11-16T13:37:36.024Z,5.67
2022-11-16T13:40:05.580Z,7.23
2022-11-16T13:42:43.143Z,5.20
2022-11-16T13:45:21.758Z,17.00
2022-11-16T13:47:56.404Z,8.93
2022-11-16T13:50:37.933Z,7.80
2022-11-16T13:56:02.914Z,7.90
2022-11-16T13:58:31.461Z,8.70
2022-11-16T14:01:03.113Z,4.87
2022-11-16T14:03:37.984Z,5.50
2022-11-16T14:06:27.839Z,8.00
2022-11-16T14:08:55.913Z,7.70
2022-11-16T14:11:31.595Z,5.20
2022-11-16T14:14:05.400Z,6.87
2022-11-16T14:16:42.103Z,5.87
2022-11-16T14:19:49.705Z,5.20
2022-11-16T14:22:44.734Z,5.30
2022-11-16T14:25:24.664Z,5.97
2022-11-16T14:28:00.281Z,5.77
2022-11-16T14:31:04.783Z,7.13
2022-11-16T14:33:34.425Z,6.13
2022-11-16T14:36:04.007Z,10.93
2022-11-16T14:38:30.597Z,6.30
2022-11-16T14:40:59.844Z,6.50
2022-11-16T14:43:29.411Z,7.83
2022-11-16T14:46:01.106Z,5.13
2022-11-16T14:48:28.171Z,8.37
2022-11-16T14:51:16.221Z,4.97
2022-11-16T14:53:49.900Z,5.43
2022-11-16T14:56:17.981Z,6.23
2022-11-16T14:59:15.728Z,8.03
2022-11-16T15:01:42.001Z,8.37
2022-11-16T15:04:10.836Z,10.03
2022-11-16T15:07:01.281Z,5.33
2022-11-16T15:09:32.929Z,5.00
2022-11-16T15:12:20.893Z,6.20
2022-11-16T15:14:54.024Z,5.53
2022-11-16T15:17:27.190Z,7.50
2022-11-16T15:20:01.452Z,6.60
2022-11-16T15:22:31.189Z,7.17
2022-11-16T15:24:59.968Z,4.63
2022-11-16T15:27:41.522Z,7.70
2022-11-16T15:30:19.964Z,5.67
2022-11-16T15:32:48.093Z,5.80
2022-11-16T15:35:29.373Z,7.03
2022-11-16T15:38:05.246Z,4.83
2022-11-16T15:40:33.338Z,6.67
2022-11-16T15:43:02.295Z,6.10
2022-11-16T15:45:30.785Z,5.27
2022-11-16T15:48:01.109Z,7.13
2022-11-16T15:50:28.345Z,7.37
2022-11-16T15:52:57.006Z,5.23
2022-11-16T15:55:31.007Z,6.80
2022-11-16T15:58:18.210Z,4.90
2022-11-16T16:00:47.875Z,5.13
2022-11-16T16:03:22.446Z,5.33
2022-11-16T16:05:50.079Z,7.07
2022-11-16T16:08:31.446Z,10.23
2022-11-16T16:11:02.816Z,5.63
2022-11-16T16:13:33.050Z,7.80
2022-11-16T16:16:28.138Z,8.77
2022-11-16T16:19:03.639Z,7.30
2022-11-16T16:21:45.215Z,21.33
2022-11-16T16:24:42.123Z,10.63
2022-11-16T16:27:17.801Z,13.40
2022-11-16T16:29:45.843Z,22.90
2022-11-16T16:32:20.474Z,31.80
2022-11-16T16:34:47.199Z,33.40
2022-11-16T16:37:14.353Z,37.97
2022-11-16T16:39:41.488Z,16.47
2022-11-16T16:42:11.412Z,14.40
2022-11-16T16:44:38.109Z,15.93
2022-11-16T16:47:05.156Z,8.37
2022-11-16T16:49:31.714Z,18.70
2022-11-16T16:51:58.650Z,66.17
2022-11-16T16:54:28.149Z,70.73
2022-11-16T16:56:56.099Z,26.63
2022-11-16T16:59:23.708Z,8.83
2022-11-16T17:01:51.267Z,11.97
2022-11-16T17:04:18.142Z,8.13
2022-11-16T17:06:46.774Z,15.33
2022-11-16T17:09:13.736Z,8.17
2022-11-16T17:11:40.360Z,11.20
2022-11-16T17:14:07.417Z,9.83
2022-11-16T17:16:35.051Z,15.83
2022-11-16T17:19:02.137Z,9.40
2022-11-16T17:21:29.072Z,8.00
2022-11-16T17:23:55.862Z,17.40
2022-11-16T17:26:24.339Z,5.43
2022-11-16T17:28:55.151Z,7.90
2022-11-16T17:31:21.921Z,4.67
2022-11-16T17:33:48.621Z,16.67
2022-11-16T17:36:15.619Z,5.93
2022-11-16T17:38:41.937Z,4.00
2022-11-16T17:41:18.939Z,5.40
2022-11-16T17:43:46.451Z,6.03
2022-11-16T17:46:16.062Z,5.50
2022-11-16T17:48:44.462Z,4.60
2022-11-16T17:51:12.985Z,6.00
2022-11-16T17:53:40.332Z,8.50
2022-11-16T17:56:07.918Z,7.70
2022-11-16T17:58:34.504Z,7.87
2022-11-16T18:01:01.301Z,5.63
2022-11-16T18:03:27.849Z,4.93
2022-11-16T18:06:03.214Z,5.53
2022-11-16T18:08:34.208Z,6.30
2022-11-16T18:11:07.695Z,6.70
2022-11-16T18:13:34.852Z,9.23
2022-11-16T18:16:09.219Z,15.73
2022-11-16T18:18:37.238Z,85.23
2022-11-16T18:21:05.204Z,36.83
2022-11-16T18:23:36.635Z,15.97
2022-11-16T18:26:15.800Z,8.47
2022-11-16T18:28:45.814Z,4.90
2022-11-16T18:31:15.063Z,6.23
2022-11-16T18:33:42.497Z,6.37
2022-11-16T18:36:10.226Z,5.57
2022-11-16T18:38:37.284Z,8.60
2022-11-16T18:41:13.951Z,5.20
2022-11-16T18:43:51.477Z,6.23
2022-11-16T18:46:20.522Z,9.87
2022-11-16T18:48:47.034Z,8.40
2022-11-16T18:51:14.989Z,6.43
2022-11-16T18:53:42.010Z,8.50
2022-11-16T18:56:16.456Z,6.70
2022-11-16T18:58:52.319Z,5.47
2022-11-16T19:01:25.073Z,5.70
2022-11-16T19:03:53.072Z,6.10
2022-11-16T19:06:20.621Z,5.77
2022-11-16T19:08:55.601Z,5.83
2022-11-16T19:11:23.859Z,5.07
2022-11-16T19:13:56.019Z,5.07
2022-11-16T19:16:31.039Z,6.43
2022-11-16T19:19:02.886Z,9.53
2022-11-16T19:21:41.187Z,3.50
2022-11-16T19:24:10.632Z,5.27
2022-11-16T19:26:40.084Z,5.23
2022-11-16T19:29:06.749Z,5.60
2022-11-16T19:31:33.466Z,5.13
2022-11-16T19:34:02.533Z,3.53
2022-11-16T19:36:30.253Z,4.10
2022-11-16T19:38:56.977Z,10.27
2022-11-16T19:41:24.906Z,3.87
2022-11-16T19:44:01.246Z,5.90
2022-11-16T19:46:32.362Z,9.40
2022-11-16T19:48:59.545Z,11.03
2022-11-16T19:51:28.533Z,6.10
2022-11-16T19:53:55.550Z,6.60
2022-11-16T19:56:23.890Z,4.43
2022-11-16T19:58:51.971Z,3.67
2022-11-16T20:01:20.809Z,4.87
2022-11-16T20:03:48.809Z,4.73
2022-11-16T20:06:17.208Z,5.23
2022-11-16T20:08:48.686Z,8.37
2022-11-16T20:11:24.147Z,5.93
2022-11-16T20:13:52.783Z,4.67
2022-11-16T20:16:22.830Z,5.00
2022-11-16T20:18:50.529Z,5.50
2022-11-16T20:21:28.244Z,4.80
2022-11-16T20:24:00.201Z,4.83
2022-11-16T20:26:31.470Z,5.27
2022-11-16T20:28:58.395Z,7.53
2022-11-16T20:31:27.622Z,7.33
2022-11-16T20:33:55.163Z,3.83
2022-11-16T20:36:24.113Z,5.07
2022-11-16T20:38:51.514Z,7.10
2022-11-16T20:41:23.422Z,4.83
2022-11-16T20:43:52.171Z,8.57
2022-11-16T20:46:21.689Z,5.93
2022-11-16T20:48:48.222Z,4.60
2022-11-16T20:51:17.352Z,6.30
2022-11-16T20:53:47.458Z,6.63
2022-11-16T20:56:15.945Z,8.50
2022-11-16T20:58:42.365Z,4.50
2022-11-16T21:01:27.783Z,7.90
2022-11-16T21:04:00.490Z,6.70
2022-11-16T21:06:28.053Z,6.13
2022-11-16T21:08:54.742Z,5.63
2022-11-16T21:11:26.935Z,7.57
2022-11-16T21:14:12.677Z,5.57
2022-11-16T21:16:42.741Z,6.80
2022-11-16T21:19:09.894Z,7.70
2022-11-16T21:21:37.879Z,5.57
2022-11-16T21:24:04.477Z,5.57
2022-11-16T21:26:32.389Z,6.17
2022-11-16T21:29:00.195Z,6.63
2022-11-16T21:31:32.462Z,7.53
2022-11-16T21:34:02.771Z,5.40
2022-11-16T21:36:31.499Z,5.57
2022-11-16T21:38:58.928Z,5.17
2022-11-16T21:41:26.477Z,6.83
2022-11-16T21:43:53.190Z,5.63
2022-11-16T21:46:25.280Z,6.33
2022-11-16T21:48:53.676Z,6.23
2022-11-16T21:51:24.148Z,5.33
2022-11-16T21:53:50.664Z,7.83
2022-11-16T21:56:19.596Z,6.97
2022-11-16T21:58:46.160Z,6.43
2022-11-16T22:01:15.873Z,7.40
2022-11-16T22:03:44.177Z,5.33
2022-11-16T22:06:34.147Z,7.90
2022-11-16T22:09:01.118Z,7.23
2022-11-16T22:11:40.153Z,6.40
2022-11-16T22:14:06.499Z,7.10
2022-11-16T22:16:33.134Z,7.43
2022-11-16T22:18:59.705Z,7.50
2022-11-16T22:21:26.229Z,8.57
2022-11-16T22:23:53.748Z,7.17
2022-11-16T22:26:20.359Z,7.57
2022-11-16T22:28:46.654Z,7.77
2022-11-16T22:31:14.595Z,7.97
2022-11-16T22:33:41.146Z,7.07
2022-11-16T22:36:10.895Z,8.20
2022-11-16T22:38:37.445Z,8.53
2022-11-16T22:41:04.290Z,10.40
2022-11-16T22:43:30.911Z,7.03
2022-11-16T22:45:58.345Z,7.03
2022-11-16T22:48:29.711Z,6.10
2022-11-16T22:51:15.635Z,8.37
2022-11-16T22:53:41.900Z,6.43
2022-11-16T22:56:09.876Z,9.07
2022-11-16T22:58:37.534Z,6.10
2022-11-16T23:01:06.778Z,8.43
2022-11-16T23:03:33.679Z,7.80
2022-11-16T23:06:00.945Z,7.07
2022-11-16T23:08:27.920Z,9.53
2022-11-16T23:11:24.560Z,6.57
2022-11-16T23:14:11.271Z,6.40
2022-11-16T23:16:39.277Z,8.07
2022-11-16T23:19:26.498Z,7.20
2022-11-16T23:22:12.641Z,8.00
2022-11-16T23:24:57.547Z,6.33
2022-11-16T23:27:30.268Z,7.00
2022-11-16T23:30:01.526Z,6.50
2022-11-16T23:32:29.186Z,6.33
2022-11-16T23:34:56.712Z,6.00
2022-11-16T23:37:23.542Z,7.57
2022-11-16T23:39:49.735Z,6.97
2022-11-16T23:42:35.085Z,6.63
2022-11-16T23:45:01.566Z,7.00
2022-11-16T23:47:28.028Z,6.83
2022-11-16T23:49:54.169Z,7.70
2022-11-16T23:52:20.689Z,7.13
2022-11-16T23:54:46.841Z,5.77
2022-11-16T23:57:13.479Z,8.17
2022-11-16T23:59:39.680Z,5.83
